Welcome to our Virtual Airline
Sign-in:

Flight MFC33161

  • Submitted By: John Dean
  • Departure Airport: Koyukuk (KYU)
  • Arrival Airport: Kaltag (KAL)
  • Aircraft: AC 500 (NAC500MM)
  • Flight Time: 00.31.00
  • Date Submitted: 2019/08/22
  • Route: STOP-OVER AT NULATO (NUL)
  • Status: Accepted
Flight Details
Gross Revenue:
(3 load / $ 44.00 per unit
$ 132.00
Fuel Cost:
(26.7619 fuel used @ 5.1 / unit)
$ 136.49

Additional Log Information:

View Log

FS[10:06] ----- Flight Opened -----
FS[10:06] Cigar Box - 1.1.4.0
FS[10:06] FS: FSX
FS[10:06] FSUIPC: v4.973
FS[10:06] Flight Number: MFC33161
FS[10:06] FS Aircraft: AC500 N687AK
FS[10:06] FS Model: AC500
FS[10:06] FS Type: ROCKWELL
FS[10:06] Departure: KYU
FS[10:06] Arrival: KAL
FS[10:06] Flight Level: 2500
FS[10:06] Flight Type: H
FS[10:06] Passengers: 3
FS[10:06] FOB: 848 lbs
FS[10:06] Gate: 3 - KYU
FS[10:06] Crash Detection: Disabled
FS[10:06] Crash Detection Aircraft: Disabled
FS[10:06] Engines: 2 Piston
FS[10:06] NOTE: Boarding has started
FS[10:06] FS: Paused
FS[10:06] Parking Brake: Engaged
FS[10:06] Main Door Open
FS[10:06] COM1: 122.90
FS[10:06] COM2: 127.80
FS[10:06] Transponder: 1200
FS[10:06] NAV1: 113.70
FS[10:06] NAV2: 110.60
FS[10:06] ADF1: 284.0
FS[10:06] ADF2: 240.0
FS[10:06] Navigation Mode: GPS
FS[10:06] Navigation Mode: GPS
FS[10:06] FS: Unpaused
FS[10:06] Main Door Closed
FS[10:06] Engine 1: Started
FS[10:06] Engine 2: Started
FS[10:08] Parking Brake: Released
FS[10:09] NOTE: Taxi started
FS[10:09] NOTE: ----- TAKE OFF -----
FS[10:09] GS: 81 knots
FS[10:09] TAS: 82 knots
FS[10:09] IAS: 82 knots
FS[10:09] VS: 23 fpm
FS[10:09] FOB: 846 lbs
FS[10:09] Heading: 259°
FS[10:09] Pitch: 7°
FS[10:09] Bank: 0°
FS[10:09] Aircraft Weight: 5506.06 lbs
FS[10:09] Nearest Airport: KYU
FS[10:09] Distance: 0.16 miles
FS[10:09] Runway: ???
FS[10:09] Ground Surface: Gravel
FS[10:09] Ground Condition: Normal
FS[10:09] NOTE: Weather Report
FS[10:09] Wind Heading: 341°
FS[10:09] Wind Speed: 0 knots
FS[10:09] OAT: 14° C
FS[10:09] TAT: 15° C
FS[10:09] Precipitation: None
FS[10:09] Dew Point: 4° C
FS[10:09] Visibility: 62 miles
FS[10:09] METAR: No METAR available for KYU.
FS[10:09] NOTE: Climb started
FS[10:09] Landing Gear: Retracted
FS[10:09] GS: 95 knots
FS[10:09] TAS: 95 knots
FS[10:09] IAS: 95 knots
FS[10:09] VS: 1401 fpm
FS[10:09] AGL: 85 ft
FS[10:09] AMSL: 219 ft
FS[10:09] Autopilot: Engaged
FS[10:09] AGL: 171 ft
FS[10:09] AMSL: 305 ft
FS[10:09] View Mode: Spot Plane
FS[10:12] Flaps: Position 1
FS[10:12] GS: 126 knots
FS[10:12] TAS: 127 knots
FS[10:12] IAS: 126 knots
FS[10:12] VS: -133 fpm
FS[10:15] Flaps: Position 2
FS[10:15] GS: 101 knots
FS[10:15] TAS: 102 knots
FS[10:15] IAS: 101 knots
FS[10:15] VS: 21 fpm
FS[10:15] Autopilot: Disengaged
FS[10:15] AGL: 689 ft
FS[10:15] AMSL: 803 ft
FS[10:15] Landing Gear: Extended
FS[10:15] GS: 93 knots
FS[10:15] TAS: 94 knots
FS[10:15] IAS: 93 knots
FS[10:15] VS: -211 fpm
FS[10:15] AGL: 676 ft
FS[10:15] AMSL: 800 ft
FS[10:15] Flaps: Position 4
FS[10:15] GS: 89 knots
FS[10:15] TAS: 90 knots
FS[10:15] IAS: 90 knots
FS[10:15] VS: -138 fpm
FS[10:16] NOTE: ----- LANDED -----
FS[10:16] Landing Rate: -208.38 fpm
FS[10:16] GS: 64 knots
FS[10:16] TAS: 65 knots
FS[10:16] IAS: 65 knots
FS[10:16] VS: -198 fpm
FS[10:16] FOB: 832 lbs
FS[10:16] Heading: 202°
FS[10:16] Pitch: 5°
FS[10:16] Bank: 0°
FS[10:16] Aircraft Weight: 5492.30 lbs
FS[10:16] Nearest Airport: NUL
FS[10:16] Distance: 0.20 miles
FS[10:16] Runway: 20 - NUL
FS[10:16] Ground Surface: Gravel
FS[10:16] Ground Condition: Normal
FS[10:16] NOTE: Weather Report
FS[10:16] Wind Heading: 341°
FS[10:16] Wind Speed: 0 knots
FS[10:16] OAT: 14° C
FS[10:16] TAT: 14° C
FS[10:16] Precipitation: None
FS[10:16] Dew Point: 4° C
FS[10:16] Visibility: 62 miles
FS[10:16] METAR: KALB 222151Z 32007KT 10SM FEW050 SCT140 BKN180 24/13 A2988 RMK AO2 SLP116 T02440128KALI 222153Z AUTO 11016G21KT 10SM FEW055 38/21 A2979 RMK AO2 LTG DSNT NW SLP085 T03780211 $KALK 222156Z AUTO 06005KT 10SM SCT095 26/12 A3005 RMK AO2 PK WND 07036/2133 WSHFT 2122 SLP077 T02560122KALM 222155Z AUTO 31005KT 10SM VCTS CLR 33/08 A2996 RMK AO2 LTG DSNT NE-SKALN 222150Z 00000KT 7SM -RA SCT060 OVC085 22/22 A2998KALO 222154Z 36007KT 10SM CLR 25/13 A3002 RMK AO2 SLP163 T02500133KALS 222152Z AUTO 36012G19KT 10SM BKN120 24/03 A3017 RMK AO2 SLP138 T02390028KALW 222153Z 26008KT 10SM CLR 26/09 A2995 RMK AO2 SLP135 T02610094KALX 222155Z AUTO 21008KT 10SM SCT050 33/21 A2999 RMK AO2 LTG DSNT S AND NW T03270205
FS[10:16] View Mode: Spot Plane
FS[10:16] Flaps: Position 0
FS[10:16] NOTE: Taxi started
FS[10:18] NOTE: Arrived
FS[10:18] Parking Brake: Engaged
FS[10:18] Main Door Open
FS[10:19] Main Door Closed
FS[10:20] Parking Brake: Released
FS[10:20] Landing Gear: Retracted
FS[10:20] GS: 99 knots
FS[10:20] TAS: 101 knots
FS[10:20] IAS: 100 knots
FS[10:20] VS: 948 fpm
FS[10:20] AGL: 43 ft
FS[10:20] AMSL: 380 ft
FS[10:20] Autopilot: Engaged
FS[10:20] AGL: 92 ft
FS[10:20] AMSL: 429 ft
FS[10:21] View Mode: Spot Plane
FS[10:21] Flaps: Position 1
FS[10:21] GS: 126 knots
FS[10:21] TAS: 127 knots
FS[10:21] IAS: 126 knots
FS[10:21] VS: 569 fpm
FS[10:29] FS: Paused
FS[10:29] FS: Unpaused
FS[10:33] Flaps: Position 2
FS[10:33] GS: 126 knots
FS[10:33] TAS: 126 knots
FS[10:33] IAS: 125 knots
FS[10:33] VS: -346 fpm
FS[10:33] Landing Gear: Extended
FS[10:33] GS: 116 knots
FS[10:33] TAS: 116 knots
FS[10:33] IAS: 116 knots
FS[10:33] VS: -518 fpm
FS[10:33] AGL: 381 ft
FS[10:33] AMSL: 479 ft
FS[10:34] Autopilot: Disengaged
FS[10:34] AGL: 289 ft
FS[10:34] AMSL: 387 ft
FS[10:34] Flaps: Position 3
FS[10:34] GS: 93 knots
FS[10:34] TAS: 93 knots
FS[10:34] IAS: 93 knots
FS[10:34] VS: 15 fpm
FS[10:35] Flaps: Position 4
FS[10:35] GS: 73 knots
FS[10:35] TAS: 74 knots
FS[10:35] IAS: 73 knots
FS[10:35] VS: -379 fpm
FS[10:35] NOTE: ----- LANDED -----
FS[10:35] Landing Rate: -161.48 fpm
FS[10:35] GS: 54 knots
FS[10:35] TAS: 54 knots
FS[10:35] IAS: 54 knots
FS[10:35] VS: -160 fpm
FS[10:35] FOB: 790 lbs
FS[10:35] Heading: 212°
FS[10:35] Pitch: 9°
FS[10:35] Bank: 0°
FS[10:35] Aircraft Weight: 5450.09 lbs
FS[10:35] Nearest Airport: KAL
FS[10:35] Distance: 0.26 miles
FS[10:35] Runway: 21 - KAL
FS[10:35] Ground Surface: Gravel
FS[10:35] Ground Condition: Normal
FS[10:35] NOTE: Weather Report
FS[10:35] Wind Heading: 342°
FS[10:35] Wind Speed: 0 knots
FS[10:35] OAT: 14° C
FS[10:35] TAT: 15° C
FS[10:35] Precipitation: None
FS[10:35] Dew Point: 4° C
FS[10:35] Visibility: 62 miles
FS[10:35] METAR: KALB 222151Z 32007KT 10SM FEW050 SCT140 BKN180 24/13 A2988 RMK AO2 SLP116 T02440128KALI 222153Z AUTO 11016G21KT 10SM FEW055 38/21 A2979 RMK AO2 LTG DSNT NW SLP085 T03780211 $KALK 222156Z AUTO 06005KT 10SM SCT095 26/12 A3005 RMK AO2 PK WND 07036/2133 WSHFT 2122 SLP077 T02560122KALM 222155Z AUTO 31005KT 10SM VCTS CLR 33/08 A2996 RMK AO2 LTG DSNT NE-SKALN 222150Z 00000KT 7SM -RA SCT060 OVC085 22/22 A2998KALO 222154Z 36007KT 10SM CLR 25/13 A3002 RMK AO2 SLP163 T02500133KALS 222152Z AUTO 36012G19KT 10SM BKN120 24/03 A3017 RMK AO2 SLP138 T02390028KALW 222153Z 26008KT 10SM CLR 26/09 A2995 RMK AO2 SLP135 T02610094KALX 222155Z AUTO 21008KT 10SM SCT050 33/21 A2999 RMK AO2 LTG DSNT S AND NW T03270205
FS[10:35] View Mode: Spot Plane
FS[10:35] Flaps: Position 0
FS[10:37] Parking Brake: Engaged
FS[10:37] Engine 1: Stopped
FS[10:37] Engine 2: Stopped
FS[10:38] Main Door Open
FS[10:38] Light Data: Navigation ON
FS[10:38] Light Data: Beacon ON
FS[10:38] Light Data: Landing lights ON
FS[10:38] Light Data: Taxi lights ON
FS[10:38] Light Data: Strobe lights ON
FS[10:38] Light Data: Instrument lights ON
FS[10:38] Light Data: Recognition lights ON
FS[10:38] Light Data: Wing lights ON
FS[10:38] Light Data: Logo lights ON
FS[10:38] Light Data: Cabin lights ON
FS[10:38] Light Data: Navigation OFF
FS[10:38] Light Data: Beacon OFF
FS[10:38] Light Data: Landing lights OFF
FS[10:38] Light Data: Taxi lights OFF
FS[10:38] Light Data: Strobe lights OFF
FS[10:38] Light Data: Instrument lights OFF
FS[10:38] Light Data: Recognition lights OFF
FS[10:38] Light Data: Wing lights OFF
FS[10:38] Light Data: Logo lights OFF
FS[10:38] Light Data: Cabin lights OFF
FS[10:38] FS: Paused
FS[10:38] Gate: 1 - KAL
FS[10:38] NOTE: Flight Completed
FS[10:38] FS Aircraft: AC500 N687AK
FS[10:38] FS Model: AC500
FS[10:38] FS Type: ROCKWELL
FS[10:38] FOB: 789 lbs
FS[10:38] Fuel Used: 59 lbs
FS[10:38] Flight Time: 00:31:00
FS[10:38] Flight Time (Dawn): 00:00:00
FS[10:38] Flight Time (Day): 00:31:00
FS[10:38] Flight Time (Dusk): 00:00:00
FS[10:38] Flight Time (Night): 00:00:00
FS[10:38] Total Landings: 2
FS[10:38] MaxSim Rate: 0x
FS[10:38] Cigar Box - 1.1.4.0
FS[10:38] ----- Flight Closed -----

Route Map